Pagina principale
METAR-TAF:

METAR-TAF

Aeroporti :

Aeroporto di Treviso-Sant'Angelo

Treviso, Italia

latitudine: 45-39N, longitudine: 012-11E, altezza: 18 m

Osservazione

Il bollettino è stato emesso 24 minuti fa, alle 09:20 UTC
Vento 2 kt da direzioni variabili
Temperature 19°C
Umidità 73%
Pressione 1020 hPa
Visibilità 10 km o più
Nuvoloso ad un'altezza di 8000 ft

METAR: LIPH 170920Z VRB02KT 9999 BKN080 19/14 Q1020

Ora: 11:44 (09:44 UTC)

Previsione

Il bollettino è stato emesso 4 ore e 44 minuti fa, alle 05:00 UTC
Previsione valida dal 17 alle 06 UTC al 18 alle 06 UTC
Vento 5 kt da direzioni variabili
Visibilità: 8000 m
Poco nuvoloso ad un'altezza di 3000 ft

TAF: LIPH 170500Z 1706/1806 VRB05KT 8000 FEW030

Osservazioni e previsioni meteorologiche di più di 4000 aeroporti (messaggi METAR e TAF).

Le stazioni disponibili sono rappresentate dai dischi gialli e rossi sulla carta.

Puntare il mouse per vedere il nome della stazione.

Clicca sopra per visualizzare le osservazioni e previsioni meteorologiche.

Per cambiare la mappa : fare clic sui pulsanti verdi con una croce nera per ingrandire, il pulsante verde con un trattino per diminuire, o sulla freccia verde per le mappe adiacenti.


METAR-TAF: